sensor_id;sensor_type;location;lat;lon;timestamp;P1;durP1;ratioP1;P2;durP2;ratioP2
34896;SDS011;43407;51.828;-2.298;2022-08-02T00:01:01;0.95;;;0.90;;
34896;SDS011;43407;51.828;-2.298;2022-08-02T00:03:30;0.60;;;0.60;;
34896;SDS011;43407;51.828;-2.298;2022-08-02T00:05:57;1.23;;;0.90;;
34896;SDS011;43407;51.828;-2.298;2022-08-02T00:08:23;0.60;;;0.60;;
34896;SDS011;43407;51.828;-2.298;2022-08-02T00:10:49;0.82;;;0.82;;
34896;SDS011;43407;51.828;-2.298;2022-08-02T00:13:17;2.50;;;0.90;;
34896;SDS011;43407;51.828;-2.298;2022-08-02T00:15:43;2.03;;;1.10;;
34896;SDS011;43407;51.828;-2.298;2022-08-02T00:18:08;1.17;;;0.90;;
34896;SDS011;43407;51.828;-2.298;2022-08-02T00:20:34;2.50;;;0.93;;
34896;SDS011;43407;51.828;-2.298;2022-08-02T00:22:59;0.90;;;0.90;;
34896;SDS011;43407;51.828;-2.298;2022-08-02T00:25:25;2.13;;;0.95;;
34896;SDS011;43407;51.828;-2.298;2022-08-02T00:27:50;0.80;;;0.80;;
34896;SDS011;43407;51.828;-2.298;2022-08-02T00:30:16;1.23;;;0.82;;
34896;SDS011;43407;51.828;-2.298;2022-08-02T00:32:44;0.70;;;0.70;;
34896;SDS011;43407;51.828;-2.298;2022-08-02T00:35:12;1.60;;;0.90;;
34896;SDS011;43407;51.828;-2.298;2022-08-02T00:37:39;0.80;;;0.80;;
34896;SDS011;43407;51.828;-2.298;2022-08-02T00:40:05;0.70;;;0.70;;
34896;SDS011;43407;51.828;-2.298;2022-08-02T00:42:32;1.05;;;0.90;;
34896;SDS011;43407;51.828;-2.298;2022-08-02T00:45:00;1.20;;;0.77;;
34896;SDS011;43407;51.828;-2.298;2022-08-02T00:47:26;0.95;;;0.70;;
34896;SDS011;43407;51.828;-2.298;2022-08-02T00:49:51;0.90;;;0.80;;
34896;SDS011;43407;51.828;-2.298;2022-08-02T00:52:17;1.48;;;0.80;;
34896;SDS011;43407;51.828;-2.298;2022-08-02T00:54:44;1.27;;;0.93;;
34896;SDS011;43407;51.828;-2.298;2022-08-02T00:57:10;1.10;;;1.00;;
34896;SDS011;43407;51.828;-2.298;2022-08-02T00:59:36;2.92;;;1.10;;
34896;SDS011;43407;51.828;-2.298;2022-08-02T01:02:01;1.40;;;1.10;;
34896;SDS011;43407;51.828;-2.298;2022-08-02T01:04:27;2.55;;;1.20;;
34896;SDS011;43407;51.828;-2.298;2022-08-02T01:06:53;2.20;;;1.27;;
34896;SDS011;43407;51.828;-2.298;2022-08-02T01:09:21;1.52;;;1.23;;
34896;SDS011;43407;51.828;-2.298;2022-08-02T01:11:49;1.15;;;1.05;;
34896;SDS011;43407;51.828;-2.298;2022-08-02T01:14:15;3.97;;;1.27;;
34896;SDS011;43407;51.828;-2.298;2022-08-02T01:16:56;1.35;;;1.25;;
34896;SDS011;43407;51.828;-2.298;2022-08-02T01:27:51;1.52;;;1.23;;
34896;SDS011;43407;51.828;-2.298;2022-08-02T01:30:37;1.60;;;1.20;;
34896;SDS011;43407;51.828;-2.298;2022-08-02T01:33:04;3.35;;;1.27;;
34896;SDS011;43407;51.828;-2.298;2022-08-02T01:35:32;6.35;;;1.67;;
34896;SDS011;43407;51.828;-2.298;2022-08-02T01:38:03;5.90;;;1.95;;
34896;SDS011;43407;51.828;-2.298;2022-08-02T01:40:33;3.80;;;1.85;;
34896;SDS011;43407;51.828;-2.298;2022-08-02T01:43:00;3.75;;;1.83;;
34896;SDS011;43407;51.828;-2.298;2022-08-02T01:45:30;3.63;;;1.73;;
34896;SDS011;43407;51.828;-2.298;2022-08-02T01:48:00;5.97;;;2.05;;
34896;SDS011;43407;51.828;-2.298;2022-08-02T01:50:31;4.22;;;2.13;;
34896;SDS011;43407;51.828;-2.298;2022-08-02T01:52:59;5.78;;;2.13;;
34896;SDS011;43407;51.828;-2.298;2022-08-02T01:55:30;4.30;;;2.42;;
34896;SDS011;43407;51.828;-2.298;2022-08-02T01:57:58;3.78;;;2.00;;
34896;SDS011;43407;51.828;-2.298;2022-08-02T02:00:27;5.65;;;2.10;;
34896;SDS011;43407;51.828;-2.298;2022-08-02T02:02:54;6.20;;;2.20;;
34896;SDS011;43407;51.828;-2.298;2022-08-02T02:05:21;6.85;;;1.92;;
34896;SDS011;43407;51.828;-2.298;2022-08-02T02:07:49;3.63;;;2.17;;
34896;SDS011;43407;51.828;-2.298;2022-08-02T02:10:18;4.65;;;2.00;;
34896;SDS011;43407;51.828;-2.298;2022-08-02T02:12:54;4.97;;;2.00;;
34896;SDS011;43407;51.828;-2.298;2022-08-02T02:15:23;4.55;;;1.90;;
34896;SDS011;43407;51.828;-2.298;2022-08-02T02:17:50;8.15;;;2.10;;
34896;SDS011;43407;51.828;-2.298;2022-08-02T02:20:19;4.47;;;1.80;;
34896;SDS011;43407;51.828;-2.298;2022-08-02T02:22:48;10.63;;;2.17;;
34896;SDS011;43407;51.828;-2.298;2022-08-02T02:25:14;7.13;;;2.15;;
34896;SDS011;43407;51.828;-2.298;2022-08-02T02:28:26;7.18;;;2.10;;
34896;SDS011;43407;51.828;-2.298;2022-08-02T02:30:38;6.50;;;2.08;;
34896;SDS011;43407;51.828;-2.298;2022-08-02T02:33:10;5.50;;;2.13;;
34896;SDS011;43407;51.828;-2.298;2022-08-02T02:35:40;5.72;;;1.80;;
34896;SDS011;43407;51.828;-2.298;2022-08-02T02:38:07;3.83;;;2.05;;
34896;SDS011;43407;51.828;-2.298;2022-08-02T02:40:34;9.45;;;2.20;;
34896;SDS011;43407;51.828;-2.298;2022-08-02T02:42:59;3.83;;;1.80;;
34896;SDS011;43407;51.828;-2.298;2022-08-02T02:45:26;8.10;;;2.38;;
34896;SDS011;43407;51.828;-2.298;2022-08-02T02:47:55;5.97;;;2.30;;
34896;SDS011;43407;51.828;-2.298;2022-08-02T02:50:21;6.38;;;2.42;;
34896;SDS011;43407;51.828;-2.298;2022-08-02T02:52:47;7.68;;;2.40;;
34896;SDS011;43407;51.828;-2.298;2022-08-02T02:55:13;6.95;;;2.28;;
34896;SDS011;43407;51.828;-2.298;2022-08-02T02:57:41;4.22;;;2.08;;
34896;SDS011;43407;51.828;-2.298;2022-08-02T03:00:11;3.67;;;1.67;;
34896;SDS011;43407;51.828;-2.298;2022-08-02T03:02:38;5.25;;;2.10;;
34896;SDS011;43407;51.828;-2.298;2022-08-02T03:05:08;6.35;;;2.28;;
34896;SDS011;43407;51.828;-2.298;2022-08-02T03:07:34;2.80;;;1.70;;
34896;SDS011;43407;51.828;-2.298;2022-08-02T03:10:02;5.15;;;1.77;;
34896;SDS011;43407;51.828;-2.298;2022-08-02T03:12:29;3.58;;;2.10;;
34896;SDS011;43407;51.828;-2.298;2022-08-02T03:14:56;4.07;;;1.63;;
34896;SDS011;43407;51.828;-2.298;2022-08-02T03:17:22;5.25;;;1.90;;
34896;SDS011;43407;51.828;-2.298;2022-08-02T03:20:06;7.28;;;2.15;;
34896;SDS011;43407;51.828;-2.298;2022-08-02T03:22:33;4.47;;;2.13;;
34896;SDS011;43407;51.828;-2.298;2022-08-02T03:24:58;3.70;;;1.80;;
34896;SDS011;43407;51.828;-2.298;2022-08-02T03:27:24;4.75;;;1.83;;
34896;SDS011;43407;51.828;-2.298;2022-08-02T03:29:49;7.57;;;2.17;;
34896;SDS011;43407;51.828;-2.298;2022-08-02T03:32:15;4.88;;;1.98;;
34896;SDS011;43407;51.828;-2.298;2022-08-02T03:34:41;5.47;;;2.10;;
34896;SDS011;43407;51.828;-2.298;2022-08-02T03:37:09;5.72;;;2.40;;
34896;SDS011;43407;51.828;-2.298;2022-08-02T03:39:35;6.53;;;2.60;;
34896;SDS011;43407;51.828;-2.298;2022-08-02T03:42:00;5.80;;;2.13;;
34896;SDS011;43407;51.828;-2.298;2022-08-02T03:44:26;5.57;;;2.75;;
34896;SDS011;43407;51.828;-2.298;2022-08-02T03:46:52;8.57;;;2.30;;
34896;SDS011;43407;51.828;-2.298;2022-08-02T03:49:18;5.70;;;2.28;;
34896;SDS011;43407;51.828;-2.298;2022-08-02T03:51:44;3.35;;;1.80;;
34896;SDS011;43407;51.828;-2.298;2022-08-02T03:54:10;5.35;;;1.83;;
34896;SDS011;43407;51.828;-2.298;2022-08-02T03:56:36;4.35;;;2.17;;
34896;SDS011;43407;51.828;-2.298;2022-08-02T03:59:05;4.72;;;1.88;;
34896;SDS011;43407;51.828;-2.298;2022-08-02T04:01:34;6.45;;;2.20;;
34896;SDS011;43407;51.828;-2.298;2022-08-02T04:04:00;6.35;;;2.28;;
34896;SDS011;43407;51.828;-2.298;2022-08-02T04:06:25;2.80;;;1.70;;
34896;SDS011;43407;51.828;-2.298;2022-08-02T04:08:51;4.60;;;2.13;;
34896;SDS011;43407;51.828;-2.298;2022-08-02T04:11:17;4.20;;;1.83;;
34896;SDS011;43407;51.828;-2.298;2022-08-02T04:13:54;4.88;;;2.20;;
34896;SDS011;43407;51.828;-2.298;2022-08-02T04:16:21;5.50;;;2.00;;
34896;SDS011;43407;51.828;-2.298;2022-08-02T04:18:55;5.15;;;1.92;;
34896;SDS011;43407;51.828;-2.298;2022-08-02T04:21:25;4.28;;;1.80;;
34896;SDS011;43407;51.828;-2.298;2022-08-02T04:23:51;6.70;;;2.00;;
34896;SDS011;43407;51.828;-2.298;2022-08-02T04:26:19;4.03;;;2.00;;
34896;SDS011;43407;51.828;-2.298;2022-08-02T04:28:45;7.13;;;1.88;;
34896;SDS011;43407;51.828;-2.298;2022-08-02T04:31:17;4.07;;;1.60;;
34896;SDS011;43407;51.828;-2.298;2022-08-02T04:33:47;5.80;;;1.85;;
34896;SDS011;43407;51.828;-2.298;2022-08-02T04:36:12;5.60;;;2.20;;
34896;SDS011;43407;51.828;-2.298;2022-08-02T04:38:39;4.65;;;2.10;;
34896;SDS011;43407;51.828;-2.298;2022-08-02T04:41:10;5.07;;;2.08;;
34896;SDS011;43407;51.828;-2.298;2022-08-02T04:43:35;8.63;;;2.10;;
34896;SDS011;43407;51.828;-2.298;2022-08-02T04:46:06;8.02;;;2.15;;
34896;SDS011;43407;51.828;-2.298;2022-08-02T04:48:34;6.10;;;2.00;;
34896;SDS011;43407;51.828;-2.298;2022-08-02T04:51:05;7.75;;;2.15;;
34896;SDS011;43407;51.828;-2.298;2022-08-02T04:53:30;5.30;;;1.70;;
34896;SDS011;43407;51.828;-2.298;2022-08-02T04:55:56;4.40;;;1.77;;
34896;SDS011;43407;51.828;-2.298;2022-08-02T04:58:22;3.47;;;1.80;;
34896;SDS011;43407;51.828;-2.298;2022-08-02T05:00:50;7.93;;;2.25;;
34896;SDS011;43407;51.828;-2.298;2022-08-02T05:03:16;5.65;;;1.85;;
34896;SDS011;43407;51.828;-2.298;2022-08-02T05:05:47;5.22;;;1.80;;
34896;SDS011;43407;51.828;-2.298;2022-08-02T05:08:12;12.85;;;2.15;;
34896;SDS011;43407;51.828;-2.298;2022-08-02T05:10:38;4.97;;;1.70;;
34896;SDS011;43407;51.828;-2.298;2022-08-02T05:13:12;6.00;;;1.90;;
34896;SDS011;43407;51.828;-2.298;2022-08-02T05:15:40;3.85;;;1.90;;
34896;SDS011;43407;51.828;-2.298;2022-08-02T05:18:05;5.38;;;2.00;;
34896;SDS011;43407;51.828;-2.298;2022-08-02T05:20:33;5.03;;;2.40;;
34896;SDS011;43407;51.828;-2.298;2022-08-02T05:23:19;4.82;;;1.67;;
34896;SDS011;43407;51.828;-2.298;2022-08-02T05:25:45;10.73;;;2.15;;
34896;SDS011;43407;51.828;-2.298;2022-08-02T05:28:11;6.30;;;1.98;;
34896;SDS011;43407;51.828;-2.298;2022-08-02T05:30:40;10.48;;;2.45;;
34896;SDS011;43407;51.828;-2.298;2022-08-02T05:33:08;6.88;;;2.08;;
34896;SDS011;43407;51.828;-2.298;2022-08-02T05:35:33;9.13;;;2.28;;
34896;SDS011;43407;51.828;-2.298;2022-08-02T05:37:59;4.88;;;1.70;;
34896;SDS011;43407;51.828;-2.298;2022-08-02T05:40:27;7.03;;;2.10;;
34896;SDS011;43407;51.828;-2.298;2022-08-02T05:42:54;8.23;;;2.20;;
34896;SDS011;43407;51.828;-2.298;2022-08-02T05:45:23;7.65;;;2.00;;
34896;SDS011;43407;51.828;-2.298;2022-08-02T05:47:49;7.57;;;2.67;;
34896;SDS011;43407;51.828;-2.298;2022-08-02T05:50:15;4.93;;;2.25;;
34896;SDS011;43407;51.828;-2.298;2022-08-02T05:52:45;6.40;;;2.30;;
34896;SDS011;43407;51.828;-2.298;2022-08-02T05:55:16;4.20;;;1.90;;
34896;SDS011;43407;51.828;-2.298;2022-08-02T05:58:05;3.40;;;1.67;;
34896;SDS011;43407;51.828;-2.298;2022-08-02T06:00:32;7.03;;;1.95;;
34896;SDS011;43407;51.828;-2.298;2022-08-02T06:05:26;4.22;;;1.60;;
34896;SDS011;43407;51.828;-2.298;2022-08-02T06:07:57;4.68;;;1.42;;
34896;SDS011;43407;51.828;-2.298;2022-08-02T06:10:26;6.63;;;1.70;;
34896;SDS011;43407;51.828;-2.298;2022-08-02T06:15:25;2.40;;;1.20;;
34896;SDS011;43407;51.828;-2.298;2022-08-02T06:17:51;1.60;;;1.10;;
34896;SDS011;43407;51.828;-2.298;2022-08-02T06:20:17;2.85;;;1.10;;
34896;SDS011;43407;51.828;-2.298;2022-08-02T06:22:44;5.75;;;1.30;;
34896;SDS011;43407;51.828;-2.298;2022-08-02T06:25:10;4.05;;;0.93;;
34896;SDS011;43407;51.828;-2.298;2022-08-02T06:27:40;4.22;;;1.10;;
34896;SDS011;43407;51.828;-2.298;2022-08-02T06:30:09;2.13;;;0.95;;
34896;SDS011;43407;51.828;-2.298;2022-08-02T06:32:40;4.55;;;1.08;;
34896;SDS011;43407;51.828;-2.298;2022-08-02T06:35:08;1.73;;;0.70;;
34896;SDS011;43407;51.828;-2.298;2022-08-02T06:37:41;2.33;;;1.00;;
34896;SDS011;43407;51.828;-2.298;2022-08-02T06:42:48;2.42;;;0.95;;
34896;SDS011;43407;51.828;-2.298;2022-08-02T06:45:23;3.80;;;1.20;;
34896;SDS011;43407;51.828;-2.298;2022-08-02T06:47:48;4.78;;;1.48;;
34896;SDS011;43407;51.828;-2.298;2022-08-02T06:50:14;4.40;;;1.33;;
34896;SDS011;43407;51.828;-2.298;2022-08-02T06:52:39;2.58;;;1.33;;
34896;SDS011;43407;51.828;-2.298;2022-08-02T06:55:05;4.13;;;1.30;;
34896;SDS011;43407;51.828;-2.298;2022-08-02T06:57:53;2.72;;;1.30;;
34896;SDS011;43407;51.828;-2.298;2022-08-02T07:00:21;2.35;;;1.55;;
34896;SDS011;43407;51.828;-2.298;2022-08-02T07:02:47;3.47;;;1.30;;
34896;SDS011;43407;51.828;-2.298;2022-08-02T07:05:14;4.90;;;1.40;;
34896;SDS011;43407;51.828;-2.298;2022-08-02T07:07:39;2.53;;;1.23;;
34896;SDS011;43407;51.828;-2.298;2022-08-02T07:10:05;5.05;;;1.50;;
34896;SDS011;43407;51.828;-2.298;2022-08-02T07:12:31;2.80;;;1.30;;
34896;SDS011;43407;51.828;-2.298;2022-08-02T07:14:58;3.10;;;1.10;;
34896;SDS011;43407;51.828;-2.298;2022-08-02T07:17:25;2.67;;;1.10;;
34896;SDS011;43407;51.828;-2.298;2022-08-02T07:19:51;2.00;;;0.98;;
34896;SDS011;43407;51.828;-2.298;2022-08-02T07:22:17;3.00;;;0.90;;
34896;SDS011;43407;51.828;-2.298;2022-08-02T07:24:47;1.55;;;0.75;;
34896;SDS011;43407;51.828;-2.298;2022-08-02T07:27:16;1.55;;;0.68;;
34896;SDS011;43407;51.828;-2.298;2022-08-02T07:29:48;3.55;;;1.15;;
34896;SDS011;43407;51.828;-2.298;2022-08-02T07:32:14;4.18;;;1.00;;
34896;SDS011;43407;51.828;-2.298;2022-08-02T07:34:44;4.55;;;1.40;;
34896;SDS011;43407;51.828;-2.298;2022-08-02T07:37:10;7.20;;;1.42;;
34896;SDS011;43407;51.828;-2.298;2022-08-02T07:39:36;4.97;;;1.48;;
34896;SDS011;43407;51.828;-2.298;2022-08-02T07:42:04;5.32;;;1.33;;
34896;SDS011;43407;51.828;-2.298;2022-08-02T07:44:30;6.40;;;1.42;;
34896;SDS011;43407;51.828;-2.298;2022-08-02T07:46:59;4.18;;;1.55;;
34896;SDS011;43407;51.828;-2.298;2022-08-02T07:49:26;10.38;;;1.80;;
34896;SDS011;43407;51.828;-2.298;2022-08-02T07:51:52;8.57;;;2.13;;
34896;SDS011;43407;51.828;-2.298;2022-08-02T07:54:17;8.15;;;1.70;;
34896;SDS011;43407;51.828;-2.298;2022-08-02T07:56:44;6.50;;;1.75;;
34896;SDS011;43407;51.828;-2.298;2022-08-02T07:59:10;5.32;;;1.77;;
34896;SDS011;43407;51.828;-2.298;2022-08-02T08:01:35;8.10;;;1.90;;
34896;SDS011;43407;51.828;-2.298;2022-08-02T08:04:02;5.85;;;1.50;;
34896;SDS011;43407;51.828;-2.298;2022-08-02T08:06:28;3.63;;;1.65;;
34896;SDS011;43407;51.828;-2.298;2022-08-02T08:08:55;5.45;;;1.52;;
34896;SDS011;43407;51.828;-2.298;2022-08-02T08:11:23;6.90;;;1.27;;
34896;SDS011;43407;51.828;-2.298;2022-08-02T08:13:49;4.35;;;1.70;;
34896;SDS011;43407;51.828;-2.298;2022-08-02T08:16:17;2.28;;;1.20;;
34896;SDS011;43407;51.828;-2.298;2022-08-02T08:18:43;2.10;;;1.02;;
34896;SDS011;43407;51.828;-2.298;2022-08-02T08:21:08;2.92;;;1.00;;
34896;SDS011;43407;51.828;-2.298;2022-08-02T08:23:35;2.55;;;0.93;;
34896;SDS011;43407;51.828;-2.298;2022-08-02T08:26:03;5.95;;;1.67;;
34896;SDS011;43407;51.828;-2.298;2022-08-02T08:28:31;4.88;;;1.17;;
34896;SDS011;43407;51.828;-2.298;2022-08-02T08:31:02;4.57;;;1.20;;
34896;SDS011;43407;51.828;-2.298;2022-08-02T08:33:27;3.53;;;1.27;;
34896;SDS011;43407;51.828;-2.298;2022-08-02T08:35:55;3.90;;;1.38;;
34896;SDS011;43407;51.828;-2.298;2022-08-02T08:38:22;5.85;;;1.67;;
34896;SDS011;43407;51.828;-2.298;2022-08-02T08:40:50;6.90;;;1.40;;
34896;SDS011;43407;51.828;-2.298;2022-08-02T08:43:16;6.90;;;1.42;;
34896;SDS011;43407;51.828;-2.298;2022-08-02T08:45:51;4.03;;;1.20;;
34896;SDS011;43407;51.828;-2.298;2022-08-02T08:48:22;5.72;;;1.27;;
34896;SDS011;43407;51.828;-2.298;2022-08-02T08:53:32;8.63;;;1.60;;
34896;SDS011;43407;51.828;-2.298;2022-08-02T08:56:07;3.20;;;1.40;;
34896;SDS011;43407;51.828;-2.298;2022-08-02T08:58:36;3.58;;;1.10;;
34896;SDS011;43407;51.828;-2.298;2022-08-02T09:01:11;4.97;;;1.38;;
34896;SDS011;43407;51.828;-2.298;2022-08-02T09:03:39;4.22;;;1.30;;
34896;SDS011;43407;51.828;-2.298;2022-08-02T09:06:07;3.45;;;1.10;;
34896;SDS011;43407;51.828;-2.298;2022-08-02T09:08:35;2.25;;;1.20;;
34896;SDS011;43407;51.828;-2.298;2022-08-02T09:11:10;4.53;;;1.33;;
34896;SDS011;43407;51.828;-2.298;2022-08-02T09:16:25;1.98;;;1.10;;
34896;SDS011;43407;51.828;-2.298;2022-08-02T09:19:20;2.35;;;1.42;;
34896;SDS011;43407;51.828;-2.298;2022-08-02T09:22:05;5.72;;;1.48;;
34896;SDS011;43407;51.828;-2.298;2022-08-02T09:24:44;5.10;;;1.25;;
34896;SDS011;43407;51.828;-2.298;2022-08-02T09:27:15;5.25;;;1.20;;
34896;SDS011;43407;51.828;-2.298;2022-08-02T09:29:48;2.25;;;0.90;;
34896;SDS011;43407;51.828;-2.298;2022-08-02T09:32:26;2.70;;;1.00;;
34896;SDS011;43407;51.828;-2.298;2022-08-02T09:35:04;2.53;;;1.00;;
34896;SDS011;43407;51.828;-2.298;2022-08-02T09:37:35;3.60;;;1.20;;
34896;SDS011;43407;51.828;-2.298;2022-08-02T09:40:03;2.38;;;1.10;;
34896;SDS011;43407;51.828;-2.298;2022-08-02T09:42:37;1.63;;;0.90;;
34896;SDS011;43407;51.828;-2.298;2022-08-02T09:45:28;4.85;;;1.85;;
34896;SDS011;43407;51.828;-2.298;2022-08-02T09:47:54;2.08;;;0.95;;
34896;SDS011;43407;51.828;-2.298;2022-08-02T09:50:30;2.63;;;0.90;;
34896;SDS011;43407;51.828;-2.298;2022-08-02T09:52:56;2.25;;;1.02;;
34896;SDS011;43407;51.828;-2.298;2022-08-02T09:55:26;2.20;;;1.10;;
34896;SDS011;43407;51.828;-2.298;2022-08-02T09:57:52;4.20;;;1.25;;
34896;SDS011;43407;51.828;-2.298;2022-08-02T10:00:18;4.20;;;0.88;;
34896;SDS011;43407;51.828;-2.298;2022-08-02T10:05:52;8.48;;;1.10;;
34896;SDS011;43407;51.828;-2.298;2022-08-02T10:08:28;3.45;;;1.05;;
34896;SDS011;43407;51.828;-2.298;2022-08-02T10:11:05;3.40;;;1.17;;
34896;SDS011;43407;51.828;-2.298;2022-08-02T10:13:40;3.08;;;0.80;;
34896;SDS011;43407;51.828;-2.298;2022-08-02T10:16:07;1.73;;;0.80;;
34896;SDS011;43407;51.828;-2.298;2022-08-02T10:18:36;3.30;;;0.90;;
34896;SDS011;43407;51.828;-2.298;2022-08-02T10:21:02;2.20;;;0.80;;
34896;SDS011;43407;51.828;-2.298;2022-08-02T10:23:33;3.83;;;1.23;;
34896;SDS011;43407;51.828;-2.298;2022-08-02T10:25:58;3.88;;;1.20;;
34896;SDS011;43407;51.828;-2.298;2022-08-02T10:28:25;3.35;;;1.30;;
34896;SDS011;43407;51.828;-2.298;2022-08-02T10:30:57;2.67;;;1.00;;
34896;SDS011;43407;51.828;-2.298;2022-08-02T10:33:23;4.38;;;1.42;;
34896;SDS011;43407;51.828;-2.298;2022-08-02T10:35:51;5.15;;;1.23;;
34896;SDS011;43407;51.828;-2.298;2022-08-02T10:38:25;5.28;;;1.58;;
34896;SDS011;43407;51.828;-2.298;2022-08-02T10:40:53;5.47;;;1.60;;
34896;SDS011;43407;51.828;-2.298;2022-08-02T10:54:19;8.32;;;1.63;;
34896;SDS011;43407;51.828;-2.298;2022-08-02T10:56:54;7.70;;;1.70;;
34896;SDS011;43407;51.828;-2.298;2022-08-02T11:01:55;8.75;;;3.13;;
34896;SDS011;43407;51.828;-2.298;2022-08-02T11:09:34;12.15;;;2.05;;
34896;SDS011;43407;51.828;-2.298;2022-08-02T11:12:13;10.85;;;2.33;;
34896;SDS011;43407;51.828;-2.298;2022-08-02T11:14:43;9.90;;;2.03;;
34896;SDS011;43407;51.828;-2.298;2022-08-02T11:17:27;7.80;;;2.40;;
34896;SDS011;43407;51.828;-2.298;2022-08-02T11:20:24;9.65;;;2.60;;
34896;SDS011;43407;51.828;-2.298;2022-08-02T11:22:51;7.00;;;2.17;;
34896;SDS011;43407;51.828;-2.298;2022-08-02T11:27:56;8.98;;;1.90;;
34896;SDS011;43407;51.828;-2.298;2022-08-02T11:30:32;12.05;;;3.03;;
34896;SDS011;43407;51.828;-2.298;2022-08-02T11:32:58;9.10;;;2.30;;
34896;SDS011;43407;51.828;-2.298;2022-08-02T11:35:31;7.32;;;2.10;;
34896;SDS011;43407;51.828;-2.298;2022-08-02T11:38:15;8.02;;;2.10;;
34896;SDS011;43407;51.828;-2.298;2022-08-02T11:40:42;10.77;;;2.20;;
34896;SDS011;43407;51.828;-2.298;2022-08-02T11:43:24;9.25;;;2.20;;
34896;SDS011;43407;51.828;-2.298;2022-08-02T11:45:57;4.93;;;1.40;;
34896;SDS011;43407;51.828;-2.298;2022-08-02T11:48:43;9.68;;;2.10;;
34896;SDS011;43407;51.828;-2.298;2022-08-02T11:51:22;10.38;;;1.83;;
34896;SDS011;43407;51.828;-2.298;2022-08-02T11:53:54;12.85;;;2.45;;
34896;SDS011;43407;51.828;-2.298;2022-08-02T11:56:40;10.60;;;2.15;;
34896;SDS011;43407;51.828;-2.298;2022-08-02T11:59:07;7.07;;;2.00;;
34896;SDS011;43407;51.828;-2.298;2022-08-02T12:01:34;9.10;;;2.53;;
34896;SDS011;43407;51.828;-2.298;2022-08-02T12:04:04;8.48;;;2.40;;
34896;SDS011;43407;51.828;-2.298;2022-08-02T12:06:30;10.52;;;1.92;;
34896;SDS011;43407;51.828;-2.298;2022-08-02T12:09:03;13.68;;;2.55;;
34896;SDS011;43407;51.828;-2.298;2022-08-02T12:11:29;11.10;;;2.30;;
34896;SDS011;43407;51.828;-2.298;2022-08-02T12:14:03;11.10;;;2.15;;
34896;SDS011;43407;51.828;-2.298;2022-08-02T12:16:36;10.02;;;2.00;;
34896;SDS011;43407;51.828;-2.298;2022-08-02T12:19:22;12.93;;;2.10;;
34896;SDS011;43407;51.828;-2.298;2022-08-02T12:22:33;6.82;;;1.60;;
34896;SDS011;43407;51.828;-2.298;2022-08-02T12:24:45;8.02;;;1.90;;
34896;SDS011;43407;51.828;-2.298;2022-08-02T12:27:34;5.65;;;1.80;;
34896;SDS011;43407;51.828;-2.298;2022-08-02T12:30:14;6.25;;;1.88;;
34896;SDS011;43407;51.828;-2.298;2022-08-02T12:32:43;6.70;;;1.88;;
34896;SDS011;43407;51.828;-2.298;2022-08-02T12:35:15;6.43;;;1.70;;
34896;SDS011;43407;51.828;-2.298;2022-08-02T12:37:43;4.03;;;1.30;;
34896;SDS011;43407;51.828;-2.298;2022-08-02T12:43:15;5.03;;;1.25;;
34896;SDS011;43407;51.828;-2.298;2022-08-02T12:45:54;5.03;;;1.52;;
34896;SDS011;43407;51.828;-2.298;2022-08-02T12:50:58;7.10;;;1.33;;
34896;SDS011;43407;51.828;-2.298;2022-08-02T12:53:29;5.55;;;1.23;;
34896;SDS011;43407;51.828;-2.298;2022-08-02T12:55:58;5.60;;;1.35;;
34896;SDS011;43407;51.828;-2.298;2022-08-02T12:58:25;4.85;;;1.17;;
34896;SDS011;43407;51.828;-2.298;2022-08-02T13:00:57;5.70;;;1.40;;
34896;SDS011;43407;51.828;-2.298;2022-08-02T13:03:25;7.90;;;1.70;;
34896;SDS011;43407;51.828;-2.298;2022-08-02T13:05:50;5.85;;;1.40;;
34896;SDS011;43407;51.828;-2.298;2022-08-02T13:08:16;4.53;;;1.50;;
34896;SDS011;43407;51.828;-2.298;2022-08-02T13:10:42;8.82;;;1.50;;
34896;SDS011;43407;51.828;-2.298;2022-08-02T13:13:08;7.70;;;2.00;;
34896;SDS011;43407;51.828;-2.298;2022-08-02T13:15:33;5.68;;;1.52;;
34896;SDS011;43407;51.828;-2.298;2022-08-02T13:17:59;5.20;;;1.48;;
34896;SDS011;43407;51.828;-2.298;2022-08-02T13:20:25;4.95;;;1.73;;
34896;SDS011;43407;51.828;-2.298;2022-08-02T13:22:52;6.97;;;1.45;;
34896;SDS011;43407;51.828;-2.298;2022-08-02T13:25:18;8.55;;;1.88;;
34896;SDS011;43407;51.828;-2.298;2022-08-02T13:27:48;6.18;;;1.88;;
34896;SDS011;43407;51.828;-2.298;2022-08-02T13:30:14;10.55;;;2.78;;
34896;SDS011;43407;51.828;-2.298;2022-08-02T13:32:40;5.57;;;2.10;;
34896;SDS011;43407;51.828;-2.298;2022-08-02T13:35:08;10.18;;;2.75;;
34896;SDS011;43407;51.828;-2.298;2022-08-02T13:37:34;12.00;;;2.63;;
34896;SDS011;43407;51.828;-2.298;2022-08-02T13:40:00;13.60;;;2.63;;
34896;SDS011;43407;51.828;-2.298;2022-08-02T13:42:25;12.07;;;3.05;;
34896;SDS011;43407;51.828;-2.298;2022-08-02T13:44:51;13.30;;;3.13;;
34896;SDS011;43407;51.828;-2.298;2022-08-02T13:47:17;15.10;;;3.42;;
34896;SDS011;43407;51.828;-2.298;2022-08-02T13:49:42;14.32;;;3.33;;
34896;SDS011;43407;51.828;-2.298;2022-08-02T13:52:08;13.18;;;2.83;;
34896;SDS011;43407;51.828;-2.298;2022-08-02T13:54:34;8.20;;;2.60;;
34896;SDS011;43407;51.828;-2.298;2022-08-02T13:57:00;19.92;;;3.33;;
34896;SDS011;43407;51.828;-2.298;2022-08-02T13:59:35;13.70;;;3.20;;
34896;SDS011;43407;51.828;-2.298;2022-08-02T14:02:03;18.67;;;2.70;;
34896;SDS011;43407;51.828;-2.298;2022-08-02T14:04:31;15.35;;;3.45;;
34896;SDS011;43407;51.828;-2.298;2022-08-02T14:06:56;10.60;;;2.55;;
34896;SDS011;43407;51.828;-2.298;2022-08-02T14:09:22;12.23;;;2.65;;
34896;SDS011;43407;51.828;-2.298;2022-08-02T14:11:48;9.88;;;2.50;;
34896;SDS011;43407;51.828;-2.298;2022-08-02T14:14:14;14.07;;;3.00;;
34896;SDS011;43407;51.828;-2.298;2022-08-02T14:16:57;9.45;;;2.95;;
34896;SDS011;43407;51.828;-2.298;2022-08-02T14:19:23;16.05;;;3.47;;
34896;SDS011;43407;51.828;-2.298;2022-08-02T14:21:49;12.23;;;3.00;;
34896;SDS011;43407;51.828;-2.298;2022-08-02T14:24:20;15.75;;;2.95;;
34896;SDS011;43407;51.828;-2.298;2022-08-02T14:26:46;12.73;;;3.03;;
34896;SDS011;43407;51.828;-2.298;2022-08-02T14:29:13;16.17;;;2.78;;
34896;SDS011;43407;51.828;-2.298;2022-08-02T14:31:45;6.53;;;2.25;;
34896;SDS011;43407;51.828;-2.298;2022-08-02T14:34:11;15.38;;;3.30;;
34896;SDS011;43407;51.828;-2.298;2022-08-02T14:36:40;11.35;;;2.63;;
34896;SDS011;43407;51.828;-2.298;2022-08-02T14:39:05;13.82;;;2.70;;
34896;SDS011;43407;51.828;-2.298;2022-08-02T14:41:31;12.82;;;2.85;;
34896;SDS011;43407;51.828;-2.298;2022-08-02T14:44:01;15.60;;;3.00;;
34896;SDS011;43407;51.828;-2.298;2022-08-02T14:46:31;12.50;;;2.80;;
34896;SDS011;43407;51.828;-2.298;2022-08-02T14:49:05;13.57;;;3.15;;
34896;SDS011;43407;51.828;-2.298;2022-08-02T14:51:33;11.77;;;3.13;;
34896;SDS011;43407;51.828;-2.298;2022-08-02T14:54:06;17.50;;;2.85;;
34896;SDS011;43407;51.828;-2.298;2022-08-02T14:56:32;13.95;;;3.13;;
34896;SDS011;43407;51.828;-2.298;2022-08-02T14:59:00;16.77;;;3.38;;
34896;SDS011;43407;51.828;-2.298;2022-08-02T15:01:26;16.00;;;3.28;;
34896;SDS011;43407;51.828;-2.298;2022-08-02T15:03:52;14.27;;;3.08;;
34896;SDS011;43407;51.828;-2.298;2022-08-02T15:06:18;17.23;;;3.70;;
34896;SDS011;43407;51.828;-2.298;2022-08-02T15:08:44;16.15;;;3.05;;
34896;SDS011;43407;51.828;-2.298;2022-08-02T15:11:10;9.38;;;2.47;;
34896;SDS011;43407;51.828;-2.298;2022-08-02T15:13:35;9.02;;;2.65;;
34896;SDS011;43407;51.828;-2.298;2022-08-02T15:16:03;7.68;;;2.53;;
34896;SDS011;43407;51.828;-2.298;2022-08-02T15:18:32;13.35;;;2.60;;
34896;SDS011;43407;51.828;-2.298;2022-08-02T15:20:57;11.98;;;2.58;;
34896;SDS011;43407;51.828;-2.298;2022-08-02T15:23:25;11.10;;;2.45;;
34896;SDS011;43407;51.828;-2.298;2022-08-02T15:25:51;6.07;;;1.83;;
34896;SDS011;43407;51.828;-2.298;2022-08-02T15:28:17;6.45;;;1.85;;
34896;SDS011;43407;51.828;-2.298;2022-08-02T15:30:45;4.22;;;1.15;;
34896;SDS011;43407;51.828;-2.298;2022-08-02T15:33:10;7.43;;;1.63;;
34896;SDS011;43407;51.828;-2.298;2022-08-02T15:35:36;6.20;;;1.20;;